Atlantic Beach, North Carolina
Current Conditions -  °F | °C
As of 11:58 AM on Thursday 27 Nov 2014 (Local Time) from KMRH Reporting Station
Clear Clear  
Wind Chill: 56°   Ceiling: Unl
Heat Index: 56°   Visibility: 10mi
Dew Point: 39°   Wind: 14mph
Humidity: 53%   Direction: 250°WSW
Pressure: 29.96"   Gusts: 22mph
Location:  34.7°N, 76.74°W
Report Text: KMRH 271658Z AUTO 25012G19KT 10SM CLR 13/04 A2996 RMK AO2 SLP145 T01330039 TSNO
Loading
Personal Weather Stations






























Interactive Weather Map New forecast layout! Learn more

10-Day Weather Forecast

Advertisements
Track Severe Weather on mobile